createdAt,value
2019-04-20T00:00:09.437Z,7.22
2019-04-20T00:01:24.545Z,6.83
2019-04-20T00:02:13.850Z,6.92
2019-04-20T00:02:59.769Z,6.90
2019-04-20T00:03:50.109Z,6.70
2019-04-20T00:04:39.302Z,7.05
2019-04-20T00:05:30.857Z,6.60
2019-04-20T00:06:21.531Z,7.12
2019-04-20T00:07:12.242Z,6.92
2019-04-20T00:08:09.133Z,7.00
2019-04-20T00:09:03.515Z,6.72
2019-04-20T00:09:50.245Z,7.10
2019-04-20T00:10:45.219Z,6.87
2019-04-20T00:11:36.525Z,6.92
2019-04-20T00:12:33.253Z,7.25
2019-04-20T00:13:23.005Z,7.08
2019-04-20T00:14:08.290Z,7.90
2019-04-20T00:14:52.252Z,7.17
2019-04-20T00:15:44.988Z,6.95
2019-04-20T00:16:35.685Z,6.97
2019-04-20T00:17:26.625Z,7.05
2019-04-20T00:18:17.076Z,7.35
2019-04-20T00:19:09.417Z,7.08
2019-04-20T00:20:04.668Z,7.30
2019-04-20T00:21:00.319Z,6.50
2019-04-20T00:22:02.037Z,6.60
2019-04-20T00:22:59.861Z,6.60
2019-04-20T00:23:54.786Z,7.05
2019-04-20T00:25:10.063Z,7.05
2019-04-20T00:27:09.227Z,6.15
2019-04-20T00:27:50.497Z,7.10
2019-04-20T00:28:40.023Z,7.10
2019-04-20T00:29:29.426Z,6.90
2019-04-20T00:30:26.448Z,6.42
2019-04-20T00:31:13.854Z,7.22
2019-04-20T00:32:01.639Z,7.00
2019-04-20T00:32:53.340Z,6.62
2019-04-20T00:33:45.837Z,6.55
2019-04-20T00:34:25.588Z,6.72
2019-04-20T00:35:12.425Z,6.72
2019-04-20T00:36:03.278Z,6.95
2019-04-20T00:36:54.118Z,6.62
2019-04-20T00:37:46.694Z,6.72
2019-04-20T00:38:42.648Z,7.33
2019-04-20T00:39:29.851Z,6.08
2019-04-20T00:40:21.270Z,7.08
2019-04-20T00:41:13.689Z,6.40
2019-04-20T00:42:06.125Z,6.12
2019-04-20T00:42:55.157Z,6.95
2019-04-20T00:43:44.220Z,6.80
2019-04-20T00:44:39.571Z,6.40
2019-04-20T00:45:31.500Z,6.22
2019-04-20T00:46:26.430Z,5.95
2019-04-20T00:47:20.076Z,6.92
2019-04-20T00:48:05.692Z,7.10
2019-04-20T00:48:55.939Z,7.08
2019-04-20T00:49:53.624Z,6.42
2019-04-20T00:50:44.501Z,6.10
2019-04-20T00:51:39.119Z,6.53
2019-04-20T00:52:30.735Z,6.05
2019-04-20T00:53:19.861Z,7.00
2019-04-20T00:53:59.256Z,6.83
2019-04-20T00:54:49.427Z,6.50
2019-04-20T00:55:42.222Z,6.75
2019-04-20T00:56:33.009Z,6.90
2019-04-20T00:57:34.620Z,6.60
2019-04-20T00:58:23.632Z,6.97
2019-04-20T00:59:20.486Z,6.33
2019-04-20T01:00:19.810Z,6.40
2019-04-20T01:01:16.489Z,6.28
2019-04-20T01:01:59.845Z,7.47
2019-04-20T01:02:43.526Z,7.05
2019-04-20T01:03:41.273Z,6.60
2019-04-20T01:04:30.084Z,7.20
2019-04-20T01:05:18.071Z,7.45
2019-04-20T01:06:22.215Z,6.75
2019-04-20T01:07:20.278Z,6.67
2019-04-20T01:08:33.967Z,7.10
2019-04-20T01:09:27.349Z,6.97
2019-04-20T01:10:19.391Z,7.47
2019-04-20T01:11:10.753Z,6.90
2019-04-20T01:12:11.736Z,6.83
2019-04-20T01:13:03.405Z,6.90
2019-04-20T01:13:49.399Z,6.92
2019-04-20T01:14:46.240Z,6.50
2019-04-20T01:15:36.395Z,7.25
2019-04-20T01:16:25.521Z,7.17
2019-04-20T01:17:12.152Z,7.00
2019-04-20T01:18:01.358Z,7.10
2019-04-20T01:18:52.264Z,7.70
2019-04-20T01:19:42.415Z,6.50
2019-04-20T01:20:33.241Z,7.10
2019-04-20T01:21:27.143Z,7.03
2019-04-20T01:22:18.479Z,7.28
2019-04-20T01:23:10.014Z,6.78
2019-04-20T01:24:01.533Z,6.53
2019-04-20T01:24:48.716Z,6.60
2019-04-20T01:25:42.453Z,6.80
2019-04-20T01:26:29.420Z,6.33
2019-04-20T01:27:34.556Z,6.62
2019-04-20T01:28:27.840Z,6.78
2019-04-20T01:29:12.164Z,7.33
2019-04-20T01:30:03.366Z,7.33
2019-04-20T01:30:58.544Z,6.75
2019-04-20T01:31:45.200Z,7.45
2019-04-20T01:32:36.028Z,7.25
2019-04-20T01:33:31.868Z,7.75
2019-04-20T01:34:26.690Z,7.12
2019-04-20T01:35:21.486Z,6.62
2019-04-20T01:36:03.250Z,6.30
2019-04-20T01:36:55.614Z,7.42
2019-04-20T01:37:52.238Z,6.42
2019-04-20T01:38:39.901Z,6.60
2019-04-20T01:39:23.958Z,7.17
2019-04-20T01:40:07.766Z,6.45
2019-04-20T01:40:57.141Z,7.37
2019-04-20T01:41:47.567Z,7.00
2019-04-20T01:42:38.079Z,6.78
2019-04-20T01:43:29.115Z,7.50
2019-04-20T01:44:27.006Z,7.17
2019-04-20T01:45:14.629Z,6.53
2019-04-20T01:46:11.274Z,7.50
2019-04-20T01:46:58.730Z,7.25
2019-04-20T01:47:50.541Z,7.00
2019-04-20T01:48:38.649Z,7.60
2019-04-20T01:49:32.394Z,7.53
2019-04-20T01:50:24.712Z,7.12
2019-04-20T01:51:17.308Z,7.78
2019-04-20T01:52:10.975Z,7.55
2019-04-20T01:53:09.009Z,7.17
2019-04-20T01:54:06.523Z,7.30
2019-04-20T01:54:59.160Z,6.10
2019-04-20T01:56:01.590Z,9.85
2019-04-20T01:56:36.149Z,11.70
2019-04-20T01:57:32.224Z,13.75
2019-04-20T01:58:36.396Z,12.40
2019-04-20T01:59:37.075Z,10.40
2019-04-20T02:00:49.635Z,9.78
2019-04-20T02:02:09.896Z,8.78
2019-04-20T02:03:15.030Z,7.97
2019-04-20T02:04:22.456Z,7.62
2019-04-20T02:05:20.761Z,7.87
2019-04-20T02:06:08.263Z,7.70
2019-04-20T02:06:59.567Z,8.95
2019-04-20T02:07:48.662Z,8.80
2019-04-20T02:08:37.728Z,8.43
2019-04-20T02:09:31.150Z,8.50
2019-04-20T02:10:21.780Z,7.80
2019-04-20T02:11:18.651Z,8.13
2019-04-20T02:12:10.395Z,8.20
2019-04-20T02:12:57.560Z,7.67
2019-04-20T02:13:51.260Z,7.17
2019-04-20T02:14:41.210Z,5.75
2019-04-20T02:15:33.220Z,7.62
2019-04-20T02:16:27.588Z,10.50
2019-04-20T02:17:16.774Z,10.60
2019-04-20T02:18:07.711Z,18.92
2019-04-20T02:19:06.566Z,21.27
2019-04-20T02:20:00.978Z,15.55
2019-04-20T02:20:50.272Z,12.70
2019-04-20T02:21:37.872Z,10.48
2019-04-20T02:22:30.308Z,11.00
2019-04-20T02:23:16.074Z,10.40
2019-04-20T02:23:57.992Z,11.43
2019-04-20T02:24:44.888Z,9.85
2019-04-20T02:25:35.851Z,11.22
2019-04-20T02:26:28.160Z,10.35
2019-04-20T02:27:20.629Z,9.30
2019-04-20T02:28:29.774Z,10.03
2019-04-20T02:29:24.688Z,9.95
2019-04-20T02:30:21.661Z,10.28
2019-04-20T02:31:23.021Z,11.20
2019-04-20T02:33:14.634Z,11.80
2019-04-20T02:33:59.237Z,11.95
2019-04-20T02:34:59.359Z,10.95
2019-04-20T02:36:20.867Z,9.95
2019-04-20T02:37:13.892Z,10.45
2019-04-20T02:38:10.552Z,10.53
2019-04-20T02:39:31.038Z,9.10
2019-04-20T02:40:00.860Z,8.73
2019-04-20T02:40:52.574Z,7.95
2019-04-20T02:41:44.872Z,8.20
2019-04-20T02:42:38.664Z,7.60
2019-04-20T02:43:30.475Z,10.30
2019-04-20T02:44:23.566Z,12.75
2019-04-20T02:47:47.783Z,11.78
2019-04-20T02:48:35.670Z,10.40
2019-04-20T02:49:36.280Z,9.05
2019-04-20T02:50:19.134Z,8.75
2019-04-20T02:51:06.605Z,9.90
2019-04-20T02:52:56.886Z,10.45
2019-04-20T02:53:51.182Z,9.38
2019-04-20T02:54:26.683Z,8.98
2019-04-20T02:55:22.839Z,9.43
2019-04-20T02:56:26.557Z,8.15
2019-04-20T02:58:00.729Z,7.72
2019-04-20T02:58:50.289Z,7.85
2019-04-20T03:00:25.122Z,7.40
2019-04-20T03:01:30.925Z,7.03
2019-04-20T03:02:23.786Z,7.50
2019-04-20T03:03:07.818Z,6.50
2019-04-20T03:03:51.119Z,7.67
2019-04-20T03:04:47.163Z,6.97
2019-04-20T03:05:41.398Z,7.30
2019-04-20T03:06:33.041Z,7.30
2019-04-20T03:07:28.148Z,7.10
2019-04-20T03:08:22.108Z,7.17
2019-04-20T03:09:17.452Z,7.20
2019-04-20T03:10:03.936Z,6.12
2019-04-20T03:11:05.816Z,7.22
2019-04-20T03:11:53.001Z,6.65
2019-04-20T03:12:38.843Z,6.08
2019-04-20T03:13:25.370Z,7.50
2019-04-20T03:14:15.684Z,6.85
2019-04-20T03:15:01.620Z,5.92
2019-04-20T03:16:01.790Z,7.37
2019-04-20T03:16:51.751Z,6.47
2019-04-20T03:17:46.025Z,7.40
2019-04-20T03:18:34.015Z,7.42
2019-04-20T03:19:17.353Z,7.25
2019-04-20T03:20:18.819Z,7.53
2019-04-20T03:21:08.136Z,7.08
2019-04-20T03:21:59.776Z,7.28
2019-04-20T03:23:15.921Z,7.70
2019-04-20T03:23:44.183Z,7.58
2019-04-20T03:24:35.696Z,6.92
2019-04-20T03:25:46.688Z,6.97
2019-04-20T03:26:36.555Z,7.28
2019-04-20T03:27:33.777Z,7.40
2019-04-20T03:28:42.980Z,7.30
2019-04-20T03:29:52.344Z,7.03
2019-04-20T03:31:29.483Z,7.33
2019-04-20T03:32:30.634Z,6.92
2019-04-20T03:33:11.765Z,7.12
2019-04-20T03:34:00.742Z,7.58
2019-04-20T03:35:28.339Z,7.45
2019-04-20T03:36:25.190Z,6.60
2019-04-20T03:37:17.084Z,8.13
2019-04-20T03:38:00.044Z,7.33
2019-04-20T03:38:48.447Z,7.50
2019-04-20T03:39:37.609Z,7.03
2019-04-20T03:40:24.326Z,7.05
2019-04-20T03:41:14.865Z,7.60
2019-04-20T03:41:56.674Z,6.70
2019-04-20T03:42:44.730Z,7.20
2019-04-20T03:43:34.915Z,7.20
2019-04-20T03:44:27.785Z,7.80
2019-04-20T03:45:21.038Z,7.10
2019-04-20T03:46:12.570Z,6.80
2019-04-20T03:47:04.562Z,6.17
2019-04-20T03:48:05.400Z,6.58
2019-04-20T03:48:54.658Z,6.42
2019-04-20T03:49:55.052Z,6.80
2019-04-20T03:50:46.366Z,6.85
2019-04-20T03:51:33.310Z,6.03
2019-04-20T03:52:24.630Z,6.25
2019-04-20T03:53:23.051Z,7.10
2019-04-20T03:54:22.222Z,7.53
2019-04-20T03:55:18.748Z,7.80
2019-04-20T03:56:28.051Z,7.53
2019-04-20T03:57:34.351Z,7.20
2019-04-20T03:58:42.360Z,6.40
2019-04-20T03:59:44.626Z,6.35
2019-04-20T04:00:50.812Z,6.22
2019-04-20T04:03:20.226Z,6.92
2019-04-20T04:04:17.487Z,6.67
2019-04-20T04:05:08.859Z,7.22
2019-04-20T04:06:06.429Z,6.67
2019-04-20T04:06:51.681Z,6.35
2019-04-20T04:07:43.183Z,6.28
2019-04-20T04:08:36.385Z,6.17
2019-04-20T04:09:30.521Z,6.28
2019-04-20T04:10:25.861Z,6.62
2019-04-20T04:11:19.969Z,6.00
2019-04-20T04:12:05.728Z,7.05
2019-04-20T04:13:09.712Z,6.08
2019-04-20T04:14:01.210Z,5.85
2019-04-20T04:14:53.693Z,6.90
2019-04-20T04:15:50.290Z,6.58
2019-04-20T04:16:42.203Z,6.47
2019-04-20T04:17:30.296Z,7.30
2019-04-20T04:18:23.311Z,7.08
2019-04-20T04:19:16.185Z,7.03
2019-04-20T04:20:03.514Z,6.75
2019-04-20T04:20:55.505Z,7.12
2019-04-20T04:21:53.741Z,6.65
2019-04-20T04:22:44.079Z,6.87
2019-04-20T04:23:38.065Z,7.60
2019-04-20T04:24:22.620Z,6.90
2019-04-20T04:25:14.820Z,6.78
2019-04-20T04:26:08.528Z,6.62
2019-04-20T04:26:54.829Z,7.08
2019-04-20T04:27:56.096Z,7.42
2019-04-20T04:28:40.889Z,6.30
2019-04-20T04:29:38.255Z,6.03
2019-04-20T04:30:21.885Z,6.37
2019-04-20T04:31:15.730Z,7.00
2019-04-20T04:32:25.545Z,6.45
2019-04-20T04:33:20.198Z,7.10
2019-04-20T04:33:55.542Z,7.00
2019-04-20T04:34:46.883Z,7.05
2019-04-20T04:35:27.147Z,7.00
2019-04-20T04:36:22.197Z,6.22
2019-04-20T04:37:17.608Z,8.68
2019-04-20T04:38:09.427Z,9.38
2019-04-20T04:39:02.561Z,8.10
2019-04-20T04:39:49.055Z,8.68
2019-04-20T04:40:51.488Z,9.85
2019-04-20T04:41:37.967Z,10.23
2019-04-20T04:42:30.412Z,9.63
2019-04-20T04:43:19.783Z,7.67
2019-04-20T04:44:09.645Z,9.18
2019-04-20T04:44:50.577Z,9.10
2019-04-20T04:45:33.970Z,16.95
2019-04-20T04:46:24.846Z,17.80
2019-04-20T04:47:15.299Z,25.10
2019-04-20T04:48:06.695Z,22.67
2019-04-20T04:49:08.766Z,24.07
2019-04-20T04:49:59.977Z,30.57
2019-04-20T04:50:47.504Z,10.43
2019-04-20T04:51:42.701Z,8.93
2019-04-20T04:52:34.201Z,9.45
2019-04-20T04:53:34.794Z,8.63
2019-04-20T04:54:16.763Z,7.72
2019-04-20T04:55:12.120Z,7.67
2019-04-20T04:55:56.457Z,8.13
2019-04-20T04:56:39.677Z,7.30
2019-04-20T04:57:30.501Z,10.03
2019-04-20T04:58:21.588Z,10.95
2019-04-20T04:59:13.280Z,10.43
2019-04-20T05:00:05.691Z,10.13
2019-04-20T05:01:05.544Z,8.70
2019-04-20T05:01:54.786Z,9.00
2019-04-20T05:02:48.893Z,9.33
2019-04-20T05:03:54.033Z,8.90
2019-04-20T05:05:06.957Z,7.53
2019-04-20T05:06:14.767Z,7.35
2019-04-20T05:06:59.506Z,8.30
2019-04-20T05:07:51.801Z,7.30
2019-04-20T05:08:41.145Z,8.18
2019-04-20T05:09:25.493Z,8.55
2019-04-20T05:10:16.063Z,7.85
2019-04-20T05:11:08.885Z,8.60
2019-04-20T05:12:05.489Z,7.80
2019-04-20T05:12:48.268Z,11.60
2019-04-20T05:13:49.035Z,9.43
2019-04-20T05:14:40.575Z,9.53
2019-04-20T05:15:37.376Z,10.45
2019-04-20T05:16:35.963Z,9.28
2019-04-20T05:17:20.697Z,9.53
2019-04-20T05:18:11.922Z,10.20
2019-04-20T05:19:13.248Z,9.83
2019-04-20T05:19:57.486Z,9.63
2019-04-20T05:20:54.661Z,9.35
2019-04-20T05:22:01.297Z,8.93
2019-04-20T05:22:58.199Z,8.00
2019-04-20T05:24:07.588Z,9.03
2019-04-20T05:25:07.102Z,8.95
2019-04-20T05:26:30.796Z,8.00
2019-04-20T05:27:39.162Z,8.23
2019-04-20T05:28:25.336Z,8.40
2019-04-20T05:29:10.762Z,8.50
2019-04-20T05:29:53.306Z,8.83
2019-04-20T05:30:48.600Z,8.45
2019-04-20T05:31:46.231Z,13.58
2019-04-20T05:32:35.850Z,12.50
2019-04-20T05:33:27.765Z,12.05
2019-04-20T05:34:30.518Z,11.97
2019-04-20T05:35:23.274Z,11.05
2019-04-20T05:36:14.719Z,10.00
2019-04-20T05:36:57.522Z,8.90
2019-04-20T05:38:02.723Z,9.60
2019-04-20T05:38:48.149Z,9.00
2019-04-20T05:39:38.221Z,8.78
2019-04-20T05:40:29.178Z,8.50
2019-04-20T05:41:16.982Z,7.97
2019-04-20T05:42:12.790Z,8.33
2019-04-20T05:43:06.478Z,7.15
2019-04-20T05:44:12.805Z,7.22
2019-04-20T05:45:07.564Z,7.62
2019-04-20T05:45:50.196Z,7.00
2019-04-20T05:46:56.598Z,7.05
2019-04-20T05:47:40.177Z,6.92
2019-04-20T05:48:36.247Z,7.50
2019-04-20T05:49:25.882Z,7.10
2019-04-20T05:50:08.339Z,6.62
2019-04-20T05:51:01.973Z,6.20
2019-04-20T05:51:54.310Z,6.42
2019-04-20T05:53:41.252Z,7.10
2019-04-20T05:54:36.475Z,7.55
2019-04-20T05:55:21.016Z,6.80
2019-04-20T05:56:10.842Z,6.20
2019-04-20T05:57:07.817Z,6.97
2019-04-20T05:57:56.753Z,6.72
2019-04-20T05:58:45.057Z,6.92
2019-04-20T05:59:47.019Z,6.80
2019-04-20T06:00:34.560Z,6.25
2019-04-20T06:01:20.224Z,6.90
2019-04-20T06:02:14.049Z,6.92
2019-04-20T06:03:00.491Z,6.80
2019-04-20T06:03:55.634Z,7.72
2019-04-20T06:04:59.655Z,6.95
2019-04-20T06:05:46.011Z,7.00
2019-04-20T06:06:33.142Z,7.25
2019-04-20T06:07:26.868Z,7.35
2019-04-20T06:08:20.416Z,6.80
2019-04-20T06:09:12.037Z,7.08
2019-04-20T06:10:00.597Z,6.67
2019-04-20T06:11:12.382Z,7.00
2019-04-20T06:12:07.615Z,6.70
2019-04-20T06:12:51.934Z,7.05
2019-04-20T06:13:53.491Z,7.22
2019-04-20T06:15:05.568Z,6.50
2019-04-20T06:16:07.832Z,6.85
2019-04-20T06:17:11.145Z,7.10
2019-04-20T06:18:06.586Z,6.60
2019-04-20T06:19:17.547Z,7.22
2019-04-20T06:20:02.380Z,7.12
2019-04-20T06:20:50.394Z,7.70
2019-04-20T06:21:57.688Z,6.53
2019-04-20T06:22:52.698Z,8.00
2019-04-20T06:23:53.195Z,6.80
2019-04-20T06:24:49.447Z,6.53
2019-04-20T06:25:58.612Z,7.15
2019-04-20T06:26:51.945Z,6.83
2019-04-20T06:27:34.176Z,7.28
2019-04-20T06:28:19.703Z,7.45
2019-04-20T06:29:09.702Z,7.05
2019-04-20T06:30:04.273Z,7.25
2019-04-20T06:30:49.434Z,6.50
2019-04-20T06:31:48.987Z,6.40
2019-04-20T06:33:50.259Z,7.03
2019-04-20T06:34:35.517Z,7.00
2019-04-20T06:35:18.929Z,7.22
2019-04-20T06:36:13.417Z,7.65
2019-04-20T06:37:56.495Z,7.78
2019-04-20T06:39:48.749Z,7.00
2019-04-20T06:40:37.304Z,7.40
2019-04-20T06:41:21.529Z,7.45
2019-04-20T06:42:13.982Z,6.60
2019-04-20T06:42:59.718Z,7.33
2019-04-20T06:43:54.311Z,7.22
2019-04-20T06:44:59.706Z,6.97
2019-04-20T06:45:35.029Z,6.45
2019-04-20T06:46:22.501Z,7.15
2019-04-20T06:47:15.505Z,7.70
2019-04-20T06:48:20.402Z,7.12
2019-04-20T06:49:05.596Z,6.67
2019-04-20T06:49:45.302Z,7.20
2019-04-20T06:50:38.501Z,7.30
2019-04-20T06:51:36.108Z,6.95
2019-04-20T06:52:40.887Z,6.85
2019-04-20T06:53:47.475Z,7.05
2019-04-20T06:54:42.214Z,6.70
2019-04-20T06:55:38.621Z,6.45
2019-04-20T06:56:29.565Z,7.12
2019-04-20T06:57:18.366Z,7.10
2019-04-20T06:58:20.525Z,6.83
2019-04-20T06:59:08.412Z,7.58
2019-04-20T06:59:47.699Z,6.95
2019-04-20T07:00:44.496Z,8.00
2019-04-20T07:01:36.976Z,8.78
2019-04-20T07:02:29.890Z,8.10
2019-04-20T07:03:18.437Z,8.70
2019-04-20T07:04:21.194Z,7.72
2019-04-20T07:04:55.958Z,7.42
2019-04-20T07:05:47.716Z,8.08
2019-04-20T07:07:00.524Z,7.85
2019-04-20T07:07:33.912Z,7.72
2019-04-20T07:08:33.388Z,7.60
2019-04-20T07:09:15.325Z,7.55
2019-04-20T07:10:57.856Z,7.25
2019-04-20T07:11:46.743Z,7.05
2019-04-20T07:12:36.889Z,7.10
2019-04-20T07:13:24.064Z,7.37
2019-04-20T07:14:08.539Z,7.62
2019-04-20T07:15:09.719Z,7.50
2019-04-20T07:16:13.771Z,7.33
2019-04-20T07:17:43.825Z,7.28
2019-04-20T07:18:15.716Z,6.58
2019-04-20T07:19:24.008Z,7.37
2019-04-20T07:20:19.475Z,7.12
2019-04-20T07:21:35.420Z,6.60
2019-04-20T07:22:36.072Z,6.47
2019-04-20T07:23:18.191Z,7.08
2019-04-20T07:24:05.062Z,7.15
2019-04-20T07:24:59.291Z,7.22
2019-04-20T07:25:52.750Z,7.20
2019-04-20T07:26:41.667Z,6.70
2019-04-20T07:27:33.642Z,6.40
2019-04-20T07:28:22.921Z,6.35
2019-04-20T07:29:15.744Z,6.45
2019-04-20T07:30:03.805Z,5.53
2019-04-20T07:30:50.271Z,6.20
2019-04-20T07:31:41.359Z,6.70
2019-04-20T07:32:44.350Z,6.40
2019-04-20T07:33:30.342Z,6.33
2019-04-20T07:34:23.012Z,6.25
2019-04-20T07:35:09.850Z,7.15
2019-04-20T07:36:04.105Z,6.37
2019-04-20T07:37:19.348Z,6.40
2019-04-20T07:38:10.419Z,6.22
2019-04-20T07:38:40.233Z,5.95
2019-04-20T07:39:32.783Z,6.10
2019-04-20T07:40:23.219Z,6.50
2019-04-20T07:41:08.730Z,6.12
2019-04-20T07:42:12.022Z,6.80
2019-04-20T07:43:52.981Z,7.05
2019-04-20T07:44:41.412Z,6.03
2019-04-20T07:45:29.566Z,6.00
2019-04-20T07:46:37.625Z,6.92
2019-04-20T07:47:13.778Z,6.47
2019-04-20T07:48:09.319Z,6.67
2019-04-20T07:48:59.900Z,6.70
2019-04-20T07:49:44.367Z,6.67
2019-04-20T07:50:32.107Z,7.08
2019-04-20T07:51:16.144Z,6.53
2019-04-20T07:51:58.005Z,7.10
2019-04-20T07:53:04.427Z,7.30
2019-04-20T07:54:10.644Z,7.45
2019-04-20T07:55:12.138Z,7.50
2019-04-20T07:55:52.380Z,7.10
2019-04-20T07:56:39.830Z,6.75
2019-04-20T07:57:25.305Z,6.97
2019-04-20T07:58:10.925Z,7.10
2019-04-20T07:58:55.306Z,6.47
2019-04-20T08:00:03.327Z,7.15
2019-04-20T08:02:12.001Z,7.87
2019-04-20T08:03:12.754Z,7.37
2019-04-20T08:04:06.640Z,7.28
2019-04-20T08:04:55.046Z,7.33
2019-04-20T08:05:53.804Z,7.95
2019-04-20T08:06:43.387Z,8.28
2019-04-20T08:07:39.186Z,7.60
2019-04-20T08:08:32.727Z,7.42
2019-04-20T08:09:22.234Z,7.67
2019-04-20T08:10:09.128Z,7.37
2019-04-20T08:11:12.675Z,7.35
2019-04-20T08:12:11.304Z,7.15
2019-04-20T08:13:09.546Z,7.30
2019-04-20T08:13:51.399Z,7.28
2019-04-20T08:14:50.144Z,7.78
2019-04-20T08:15:46.150Z,7.83
2019-04-20T08:16:38.252Z,8.00
2019-04-20T08:17:41.898Z,7.35
2019-04-20T08:18:12.088Z,7.35
2019-04-20T08:19:00.936Z,7.45
2019-04-20T08:19:46.350Z,7.47
2019-04-20T08:20:43.839Z,7.03
2019-04-20T08:21:35.089Z,7.72
2019-04-20T08:22:26.602Z,7.03
2019-04-20T08:23:17.144Z,7.40
2019-04-20T08:24:02.466Z,7.20
2019-04-20T08:24:52.418Z,6.97
2019-04-20T08:25:39.642Z,6.90
2019-04-20T08:26:26.115Z,6.35
2019-04-20T08:27:13.177Z,6.83
2019-04-20T08:28:35.866Z,6.75
2019-04-20T08:29:41.740Z,7.53
2019-04-20T08:30:33.958Z,6.75
2019-04-20T08:31:55.915Z,6.28
2019-04-20T08:33:13.143Z,6.78
2019-04-20T08:34:28.258Z,6.87
2019-04-20T08:35:07.110Z,6.50
2019-04-20T08:35:53.952Z,6.95
2019-04-20T08:36:47.809Z,6.90
2019-04-20T08:37:32.948Z,6.30
2019-04-20T08:40:12.056Z,6.72
2019-04-20T08:41:00.303Z,6.47
2019-04-20T08:41:57.070Z,6.62
2019-04-20T08:42:57.262Z,6.25
2019-04-20T08:43:47.037Z,7.20
2019-04-20T08:45:16.363Z,6.72
2019-04-20T08:46:05.507Z,6.20
2019-04-20T08:47:24.204Z,5.50
2019-04-20T08:47:57.138Z,6.10
2019-04-20T08:48:43.500Z,6.50
2019-04-20T08:49:35.449Z,6.60
2019-04-20T08:50:22.384Z,6.80
2019-04-20T08:51:16.532Z,6.57
2019-04-20T08:52:52.067Z,6.10
2019-04-20T08:53:12.762Z,6.10
2019-04-20T08:53:47.107Z,5.90
2019-04-20T08:54:34.348Z,6.00
2019-04-20T08:55:29.478Z,5.95
2019-04-20T08:56:14.544Z,6.20
2019-04-20T08:56:57.143Z,5.83
2019-04-20T08:57:46.795Z,5.40
2019-04-20T08:58:37.110Z,5.80
2019-04-20T08:59:28.928Z,5.97
2019-04-20T09:00:27.500Z,5.77
2019-04-20T09:01:20.215Z,5.60
2019-04-20T09:02:08.395Z,6.27
2019-04-20T09:03:00.901Z,5.57
2019-04-20T09:03:56.533Z,5.30
2019-04-20T09:04:46.084Z,5.70
2019-04-20T09:05:41.352Z,6.77
2019-04-20T09:06:32.320Z,6.30
2019-04-20T09:07:18.115Z,5.63
2019-04-20T09:08:11.366Z,5.30
2019-04-20T09:09:11.695Z,5.37
2019-04-20T09:10:14.359Z,5.50
2019-04-20T09:10:54.137Z,5.30
2019-04-20T09:11:49.549Z,5.27
2019-04-20T09:12:35.422Z,5.93
2019-04-20T09:13:22.289Z,5.17
2019-04-20T09:14:18.752Z,5.20
2019-04-20T09:15:12.435Z,5.30
2019-04-20T09:16:02.183Z,5.30
2019-04-20T09:17:02.818Z,5.63
2019-04-20T09:18:00.597Z,5.20
2019-04-20T09:18:56.685Z,5.47
2019-04-20T09:19:46.808Z,5.30
2019-04-20T09:20:36.557Z,5.60
2019-04-20T09:21:30.889Z,5.40
2019-04-20T09:22:40.221Z,5.17
2019-04-20T09:23:36.785Z,5.03
2019-04-20T09:24:34.651Z,5.63
2019-04-20T09:25:42.835Z,5.50
2019-04-20T09:26:29.399Z,6.00
2019-04-20T09:27:04.727Z,5.43
2019-04-20T09:27:45.907Z,5.23
2019-04-20T09:28:59.240Z,5.30
2019-04-20T09:29:43.782Z,5.30
2019-04-20T09:30:37.289Z,6.70
2019-04-20T09:31:36.891Z,5.50
2019-04-20T09:32:28.700Z,5.10
2019-04-20T09:33:41.991Z,5.10
2019-04-20T09:34:42.372Z,5.23
2019-04-20T09:35:33.246Z,5.53
2019-04-20T09:36:18.498Z,5.03
2019-04-20T09:37:44.637Z,5.63
2019-04-20T09:38:30.021Z,5.40
2019-04-20T09:40:04.319Z,5.70
2019-04-20T09:40:54.265Z,6.00
2019-04-20T09:41:58.474Z,5.53
2019-04-20T09:42:36.846Z,5.90
2019-04-20T09:43:38.984Z,5.77
2019-04-20T09:44:31.496Z,7.27
2019-04-20T09:45:33.029Z,7.90
2019-04-20T09:46:15.711Z,5.77
2019-04-20T09:47:07.338Z,5.93
2019-04-20T09:47:58.145Z,6.13
2019-04-20T09:48:55.604Z,5.93
2019-04-20T09:49:49.804Z,6.03
2019-04-20T09:50:47.585Z,5.67
2019-04-20T09:51:42.384Z,6.30
2019-04-20T09:52:27.849Z,5.70
2019-04-20T09:53:19.743Z,6.33
2019-04-20T09:54:04.032Z,6.00
2019-04-20T09:54:59.297Z,6.03
2019-04-20T09:55:53.616Z,6.90
2019-04-20T09:56:39.520Z,6.87
2019-04-20T09:57:38.057Z,6.27
2019-04-20T09:58:21.342Z,6.60
2019-04-20T09:59:26.896Z,6.63
2019-04-20T10:00:11.795Z,6.10
2019-04-20T10:01:03.344Z,6.33
2019-04-20T10:01:43.694Z,6.20
2019-04-20T10:02:32.487Z,6.13
2019-04-20T10:03:18.825Z,6.13
2019-04-20T10:04:11.042Z,6.70
2019-04-20T10:05:02.031Z,6.87
2019-04-20T10:05:53.769Z,6.27
2019-04-20T10:06:43.619Z,6.57
2019-04-20T10:07:37.282Z,6.37
2019-04-20T10:08:27.535Z,6.23
2019-04-20T10:09:20.422Z,5.60
2019-04-20T10:10:22.697Z,5.67
2019-04-20T10:10:59.499Z,5.83
2019-04-20T10:11:51.605Z,6.20
2019-04-20T10:12:43.937Z,5.33
2019-04-20T10:13:34.360Z,5.90
2019-04-20T10:14:24.923Z,7.90
2019-04-20T10:15:21.363Z,6.57
2019-04-20T10:16:08.329Z,6.40
2019-04-20T10:17:00.074Z,5.97
2019-04-20T10:17:49.974Z,6.00
2019-04-20T10:18:45.499Z,6.00
2019-04-20T10:19:34.646Z,6.67
2019-04-20T10:20:28.228Z,6.77
2019-04-20T10:21:13.755Z,6.47
2019-04-20T10:22:04.548Z,5.77
2019-04-20T10:22:54.426Z,5.87
2019-04-20T10:23:45.598Z,6.60
2019-04-20T10:24:36.964Z,6.30
2019-04-20T10:25:28.674Z,6.47
2019-04-20T10:26:18.957Z,6.60
2019-04-20T10:27:12.597Z,6.90
2019-04-20T10:28:03.358Z,6.93
2019-04-20T10:28:52.879Z,6.50
2019-04-20T10:29:44.109Z,7.33
2019-04-20T10:30:34.913Z,7.07
2019-04-20T10:31:26.464Z,6.73
2019-04-20T10:32:17.888Z,7.10
2019-04-20T10:33:07.886Z,6.60
2019-04-20T10:33:59.762Z,6.73
2019-04-20T10:34:50.697Z,6.70
2019-04-20T10:35:41.655Z,6.53
2019-04-20T10:37:01.708Z,6.27
2019-04-20T10:38:01.029Z,6.43
2019-04-20T10:38:54.760Z,6.50
2019-04-20T10:39:44.702Z,6.07
2019-04-20T10:40:47.334Z,6.00
2019-04-20T10:41:36.014Z,6.73
2019-04-20T10:42:18.339Z,6.00
2019-04-20T10:43:10.228Z,5.80
2019-04-20T10:44:00.755Z,5.90
2019-04-20T10:44:54.877Z,5.50
2019-04-20T10:45:42.017Z,5.23
2019-04-20T10:46:33.301Z,5.47
2019-04-20T10:47:25.421Z,5.87
2019-04-20T10:48:17.352Z,5.53
2019-04-20T10:49:09.469Z,5.53
2019-04-20T10:50:00.926Z,5.43
2019-04-20T10:50:52.713Z,5.33
2019-04-20T10:51:43.953Z,5.20
2019-04-20T10:52:33.976Z,5.67
2019-04-20T10:53:23.885Z,5.73
2019-04-20T10:54:14.560Z,5.87
2019-04-20T10:55:08.373Z,5.60
2019-04-20T10:55:57.741Z,5.30
2019-04-20T10:56:49.776Z,5.80
2019-04-20T10:57:39.679Z,5.63
2019-04-20T10:58:31.766Z,5.37
2019-04-20T10:59:21.886Z,5.57
2019-04-20T11:00:13.547Z,6.07
2019-04-20T11:01:03.898Z,5.77
2019-04-20T11:01:55.946Z,5.07
2019-04-20T11:02:47.521Z,4.97
2019-04-20T11:03:36.606Z,5.00
2019-04-20T11:04:28.526Z,5.30
2019-04-20T11:05:18.596Z,5.37
2019-04-20T11:06:11.016Z,4.87
2019-04-20T11:07:02.862Z,5.53
2019-04-20T11:07:54.715Z,5.50
2019-04-20T11:08:44.572Z,5.47
2019-04-20T11:09:37.102Z,5.30
2019-04-20T11:10:30.462Z,5.70
2019-04-20T11:11:25.262Z,5.30
2019-04-20T11:12:10.580Z,5.50
2019-04-20T11:13:01.265Z,4.90
2019-04-20T11:13:51.699Z,5.60
2019-04-20T11:14:45.470Z,5.43
2019-04-20T11:15:32.902Z,4.80
2019-04-20T11:16:24.333Z,5.43
2019-04-20T11:17:14.262Z,5.43
2019-04-20T11:18:07.099Z,5.30
2019-04-20T11:18:57.630Z,5.23
2019-04-20T11:19:47.606Z,5.00
2019-04-20T11:20:39.406Z,5.20
2019-04-20T11:21:29.943Z,5.40
2019-04-20T11:22:20.077Z,5.57
2019-04-20T11:23:11.751Z,5.43
2019-04-20T11:24:02.555Z,5.13
2019-04-20T11:24:52.712Z,5.03
2019-04-20T11:25:44.194Z,4.97
2019-04-20T11:26:37.075Z,4.57
2019-04-20T11:27:25.990Z,5.00
2019-04-20T11:28:17.017Z,4.70
2019-04-20T11:29:09.212Z,4.90
2019-04-20T11:30:20.608Z,4.83
2019-04-20T11:31:12.437Z,5.07
2019-04-20T11:32:03.562Z,4.83
2019-04-20T11:32:54.298Z,4.90
2019-04-20T11:33:45.903Z,4.60
2019-04-20T11:34:39.951Z,4.80
2019-04-20T11:35:32.712Z,4.87
2019-04-20T11:36:19.191Z,5.05
2019-04-20T11:37:10.809Z,4.75
2019-04-20T11:38:00.975Z,4.50
2019-04-20T11:38:53.050Z,5.05
2019-04-20T11:39:47.394Z,5.28
2019-04-20T11:40:39.361Z,5.10
2019-04-20T11:41:34.038Z,5.20
2019-04-20T11:42:23.551Z,4.55
2019-04-20T11:43:15.620Z,5.50
2019-04-20T11:44:07.687Z,5.20
2019-04-20T11:44:57.955Z,4.83
2019-04-20T11:45:51.081Z,4.45
2019-04-20T11:46:42.925Z,4.70
2019-04-20T11:47:35.652Z,4.70
2019-04-20T11:48:25.741Z,4.55
2019-04-20T11:49:17.472Z,4.80
2019-04-20T11:50:07.410Z,4.25
2019-04-20T11:50:58.563Z,4.15
2019-04-20T11:51:51.855Z,4.12
2019-04-20T11:52:44.580Z,4.15
2019-04-20T11:53:34.272Z,4.40
2019-04-20T11:54:26.349Z,4.58
2019-04-20T11:55:16.382Z,4.08
2019-04-20T11:56:14.496Z,4.65
2019-04-20T11:57:03.742Z,4.42
2019-04-20T11:57:54.365Z,4.50
2019-04-20T11:58:45.449Z,4.47
2019-04-20T11:59:37.172Z,4.50
2019-04-20T12:00:46.907Z,4.58